sensor_id;sensor_type;location;lat;lon;timestamp;pressure;altitude;pressure_sealevel;temperature;humidity
34586;BME280;20816;50.950;11.108;2023-05-18T00:01:15;99430.25;;;4.59;100.00
34586;BME280;20816;50.950;11.108;2023-05-18T00:03:42;99432.00;;;4.60;100.00
34586;BME280;20816;50.950;11.108;2023-05-18T00:06:09;99429.38;;;4.59;100.00
34586;BME280;20816;50.950;11.108;2023-05-18T00:08:36;99430.38;;;4.65;100.00
34586;BME280;20816;50.950;11.108;2023-05-18T00:11:04;99438.25;;;4.71;100.00
34586;BME280;20816;50.950;11.108;2023-05-18T00:13:31;99429.53;;;4.69;100.00
34586;BME280;20816;50.950;11.108;2023-05-18T00:15:58;99427.75;;;4.65;100.00
34586;BME280;20816;50.950;11.108;2023-05-18T00:18:25;99431.22;;;4.64;100.00
34586;BME280;20816;50.950;11.108;2023-05-18T00:20:54;99429.31;;;4.54;100.00
34586;BME280;20816;50.950;11.108;2023-05-18T00:23:29;99430.00;;;4.44;100.00
34586;BME280;20816;50.950;11.108;2023-05-18T00:25:57;99432.50;;;4.38;100.00
34586;BME280;20816;50.950;11.108;2023-05-18T00:28:24;99434.19;;;4.33;100.00
34586;BME280;20816;50.950;11.108;2023-05-18T00:30:52;99434.97;;;4.29;100.00
34586;BME280;20816;50.950;11.108;2023-05-18T00:33:19;99442.78;;;4.29;100.00
34586;BME280;20816;50.950;11.108;2023-05-18T00:35:46;99436.63;;;4.24;100.00
34586;BME280;20816;50.950;11.108;2023-05-18T00:38:13;99437.31;;;4.13;100.00
34586;BME280;20816;50.950;11.108;2023-05-18T00:40:43;99435.50;;;4.09;100.00
34586;BME280;20816;50.950;11.108;2023-05-18T00:43:09;99438.91;;;4.07;100.00
34586;BME280;20816;50.950;11.108;2023-05-18T00:45:36;99442.50;;;4.13;100.00
34586;BME280;20816;50.950;11.108;2023-05-18T00:48:04;99442.66;;;4.22;100.00
34586;BME280;20816;50.950;11.108;2023-05-18T00:50:31;99440.25;;;4.33;100.00
34586;BME280;20816;50.950;11.108;2023-05-18T00:52:58;99437.72;;;4.38;100.00
34586;BME280;20816;50.950;11.108;2023-05-18T00:55:25;99437.69;;;4.36;100.00
34586;BME280;20816;50.950;11.108;2023-05-18T00:57:55;99443.00;;;4.41;100.00
34586;BME280;20816;50.950;11.108;2023-05-18T01:00:22;99447.38;;;4.43;100.00
34586;BME280;20816;50.950;11.108;2023-05-18T01:02:50;99445.63;;;4.42;100.00
34586;BME280;20816;50.950;11.108;2023-05-18T01:05:17;99447.13;;;4.30;100.00
34586;BME280;20816;50.950;11.108;2023-05-18T01:07:45;99453.28;;;4.35;100.00
34586;BME280;20816;50.950;11.108;2023-05-18T01:10:15;99445.44;;;4.32;100.00
34586;BME280;20816;50.950;11.108;2023-05-18T01:15:33;99447.78;;;4.16;100.00
34586;BME280;20816;50.950;11.108;2023-05-18T01:18:15;99450.31;;;4.13;100.00
34586;BME280;20816;50.950;11.108;2023-05-18T01:21:20;99450.41;;;4.18;100.00
34586;BME280;20816;50.950;11.108;2023-05-18T01:24:02;99451.28;;;4.18;100.00
34586;BME280;20816;50.950;11.108;2023-05-18T01:26:32;99456.25;;;4.06;100.00
34586;BME280;20816;50.950;11.108;2023-05-18T01:29:05;99457.91;;;4.01;100.00
34586;BME280;20816;50.950;11.108;2023-05-18T01:31:35;99456.94;;;3.96;100.00
34586;BME280;20816;50.950;11.108;2023-05-18T01:34:03;99453.50;;;3.99;100.00
34586;BME280;20816;50.950;11.108;2023-05-18T01:36:30;99452.72;;;4.03;100.00
34586;BME280;20816;50.950;11.108;2023-05-18T01:38:59;99455.44;;;4.07;100.00
34586;BME280;20816;50.950;11.108;2023-05-18T01:41:28;99452.69;;;4.00;100.00
34586;BME280;20816;50.950;11.108;2023-05-18T01:44:15;99455.19;;;3.95;100.00
34586;BME280;20816;50.950;11.108;2023-05-18T01:47:12;99455.81;;;3.82;100.00
34586;BME280;20816;50.950;11.108;2023-05-18T01:52:33;99460.09;;;3.78;100.00
34586;BME280;20816;50.950;11.108;2023-05-18T01:55:03;99462.78;;;3.83;100.00
34586;BME280;20816;50.950;11.108;2023-05-18T01:57:32;99463.38;;;3.70;100.00
34586;BME280;20816;50.950;11.108;2023-05-18T01:59:59;99462.44;;;3.66;100.00
34586;BME280;20816;50.950;11.108;2023-05-18T02:02:26;99469.34;;;3.65;100.00
34586;BME280;20816;50.950;11.108;2023-05-18T02:04:54;99472.03;;;3.69;100.00
34586;BME280;20816;50.950;11.108;2023-05-18T02:07:20;99472.81;;;3.66;100.00
34586;BME280;20816;50.950;11.108;2023-05-18T02:09:47;99467.59;;;3.64;100.00
34586;BME280;20816;50.950;11.108;2023-05-18T02:12:14;99471.03;;;3.62;100.00
34586;BME280;20816;50.950;11.108;2023-05-18T02:14:41;99471.84;;;3.59;100.00
34586;BME280;20816;50.950;11.108;2023-05-18T02:17:08;99472.72;;;3.58;100.00
34586;BME280;20816;50.950;11.108;2023-05-18T02:19:34;99476.13;;;3.57;100.00
34586;BME280;20816;50.950;11.108;2023-05-18T02:22:05;99470.00;;;3.54;100.00
34586;BME280;20816;50.950;11.108;2023-05-18T02:24:32;99463.94;;;3.53;100.00
34586;BME280;20816;50.950;11.108;2023-05-18T02:26:59;99470.81;;;3.51;100.00
34586;BME280;20816;50.950;11.108;2023-05-18T02:29:26;99470.75;;;3.48;100.00
34586;BME280;20816;50.950;11.108;2023-05-18T02:31:53;99457.78;;;3.50;100.00
34586;BME280;20816;50.950;11.108;2023-05-18T02:34:20;99465.56;;;3.50;100.00
34586;BME280;20816;50.950;11.108;2023-05-18T02:36:48;99462.91;;;3.45;100.00
34586;BME280;20816;50.950;11.108;2023-05-18T02:39:15;99466.31;;;3.43;100.00
34586;BME280;20816;50.950;11.108;2023-05-18T02:41:41;99469.72;;;3.42;100.00
34586;BME280;20816;50.950;11.108;2023-05-18T02:44:08;99464.34;;;3.32;100.00
34586;BME280;20816;50.950;11.108;2023-05-18T02:46:35;99456.44;;;3.26;100.00
34586;BME280;20816;50.950;11.108;2023-05-18T02:49:01;99463.28;;;3.23;100.00
34586;BME280;20816;50.950;11.108;2023-05-18T02:51:28;99452.84;;;3.20;100.00
34586;BME280;20816;50.950;11.108;2023-05-18T02:53:56;99459.78;;;3.21;100.00
34586;BME280;20816;50.950;11.108;2023-05-18T02:56:23;99460.78;;;3.26;100.00
34586;BME280;20816;50.950;11.108;2023-05-18T02:58:50;99471.88;;;3.19;100.00
34586;BME280;20816;50.950;11.108;2023-05-18T03:01:23;99463.16;;;3.17;100.00
34586;BME280;20816;50.950;11.108;2023-05-18T03:03:53;99465.63;;;3.11;100.00
34586;BME280;20816;50.950;11.108;2023-05-18T03:06:20;99470.75;;;3.07;100.00
34586;BME280;20816;50.950;11.108;2023-05-18T03:08:52;99462.91;;;3.04;100.00
34586;BME280;20816;50.950;11.108;2023-05-18T03:11:20;99460.94;;;2.94;100.00
34586;BME280;20816;50.950;11.108;2023-05-18T03:13:48;99464.50;;;2.99;100.00
34586;BME280;20816;50.950;11.108;2023-05-18T03:16:15;99463.09;;;3.14;100.00
34586;BME280;20816;50.950;11.108;2023-05-18T03:18:42;99464.09;;;3.20;100.00
34586;BME280;20816;50.950;11.108;2023-05-18T03:21:08;99461.59;;;3.25;100.00
34586;BME280;20816;50.950;11.108;2023-05-18T03:23:39;99453.88;;;3.28;100.00
34586;BME280;20816;50.950;11.108;2023-05-18T03:26:06;99462.44;;;3.24;100.00
34586;BME280;20816;50.950;11.108;2023-05-18T03:28:37;99465.91;;;3.24;100.00
34586;BME280;20816;50.950;11.108;2023-05-18T03:31:04;99458.13;;;3.24;100.00
34586;BME280;20816;50.950;11.108;2023-05-18T03:33:31;99461.50;;;3.20;100.00
34586;BME280;20816;50.950;11.108;2023-05-18T03:36:02;99463.22;;;3.18;100.00
34586;BME280;20816;50.950;11.108;2023-05-18T03:38:29;99461.34;;;3.13;100.00
34586;BME280;20816;50.950;11.108;2023-05-18T03:40:56;99471.88;;;3.19;100.00
34586;BME280;20816;50.950;11.108;2023-05-18T03:43:23;99464.13;;;3.22;100.00
34586;BME280;20816;50.950;11.108;2023-05-18T03:45:51;99468.34;;;3.17;100.00
34586;BME280;20816;50.950;11.108;2023-05-18T03:48:19;99468.44;;;3.20;100.00
34586;BME280;20816;50.950;11.108;2023-05-18T03:50:46;99479.59;;;3.17;100.00
34586;BME280;20816;50.950;11.108;2023-05-18T03:53:14;99477.06;;;3.19;100.00
34586;BME280;20816;50.950;11.108;2023-05-18T03:55:45;99479.66;;;3.19;100.00
34586;BME280;20816;50.950;11.108;2023-05-18T03:58:12;99471.94;;;3.22;100.00
34586;BME280;20816;50.950;11.108;2023-05-18T04:00:38;99480.81;;;3.33;100.00
34586;BME280;20816;50.950;11.108;2023-05-18T04:03:05;99479.19;;;3.38;100.00
34586;BME280;20816;50.950;11.108;2023-05-18T04:05:32;99475.00;;;3.43;100.00
34586;BME280;20816;50.950;11.108;2023-05-18T04:07:59;99476.03;;;3.51;100.00
34586;BME280;20816;50.950;11.108;2023-05-18T04:10:26;99475.19;;;3.52;100.00
34586;BME280;20816;50.950;11.108;2023-05-18T04:12:53;99473.50;;;3.56;100.00
34586;BME280;20816;50.950;11.108;2023-05-18T04:15:19;99479.72;;;3.62;100.00
34586;BME280;20816;50.950;11.108;2023-05-18T04:17:49;99481.53;;;3.67;100.00
34586;BME280;20816;50.950;11.108;2023-05-18T04:20:16;99483.38;;;3.74;100.00
34586;BME280;20816;50.950;11.108;2023-05-18T04:22:45;99490.53;;;3.84;100.00
34586;BME280;20816;50.950;11.108;2023-05-18T04:25:14;99482.88;;;3.91;100.00
34586;BME280;20816;50.950;11.108;2023-05-18T04:27:41;99494.25;;;3.98;100.00
34586;BME280;20816;50.950;11.108;2023-05-18T04:30:09;99490.06;;;4.06;100.00
34586;BME280;20816;50.950;11.108;2023-05-18T04:32:38;99492.75;;;4.09;100.00
34586;BME280;20816;50.950;11.108;2023-05-18T04:35:09;99496.41;;;4.20;100.00
34586;BME280;20816;50.950;11.108;2023-05-18T04:37:37;99494.13;;;4.39;100.00
34586;BME280;20816;50.950;11.108;2023-05-18T04:40:07;99497.69;;;4.44;100.00
34586;BME280;20816;50.950;11.108;2023-05-18T04:42:39;99495.31;;;4.56;100.00
34586;BME280;20816;50.950;11.108;2023-05-18T04:45:17;99504.22;;;4.72;100.00
34586;BME280;20816;50.950;11.108;2023-05-18T04:47:46;99495.75;;;4.84;100.00
34586;BME280;20816;50.950;11.108;2023-05-18T04:50:14;99490.88;;;5.05;100.00
34586;BME280;20816;50.950;11.108;2023-05-18T04:52:45;99494.72;;;5.31;100.00
34586;BME280;20816;50.950;11.108;2023-05-18T04:55:18;99499.34;;;5.54;100.00
34586;BME280;20816;50.950;11.108;2023-05-18T04:57:52;99502.25;;;5.78;100.00
34586;BME280;20816;50.950;11.108;2023-05-18T05:00:26;99498.22;;;6.03;100.00
34586;BME280;20816;50.950;11.108;2023-05-18T05:02:55;99500.25;;;6.32;100.00
34586;BME280;20816;50.950;11.108;2023-05-18T05:05:23;99494.38;;;6.59;99.85
34586;BME280;20816;50.950;11.108;2023-05-18T05:07:51;99496.38;;;6.87;100.00
34586;BME280;20816;50.950;11.108;2023-05-18T05:10:19;99492.09;;;7.00;97.39
34586;BME280;20816;50.950;11.108;2023-05-18T05:12:47;99497.47;;;7.17;95.71
34586;BME280;20816;50.950;11.108;2023-05-18T05:15:15;99500.25;;;7.50;95.25
34586;BME280;20816;50.950;11.108;2023-05-18T05:17:42;99495.13;;;7.76;91.16
34586;BME280;20816;50.950;11.108;2023-05-18T05:20:09;99502.19;;;7.91;89.13
34586;BME280;20816;50.950;11.108;2023-05-18T05:22:36;99497.00;;;8.19;86.71
34586;BME280;20816;50.950;11.108;2023-05-18T05:25:03;99497.00;;;8.19;85.60
34586;BME280;20816;50.950;11.108;2023-05-18T05:27:31;99504.06;;;8.62;85.87
34586;BME280;20816;50.950;11.108;2023-05-18T05:29:58;99491.84;;;8.77;83.87
34586;BME280;20816;50.950;11.108;2023-05-18T05:32:25;99489.22;;;8.95;83.04
34586;BME280;20816;50.950;11.108;2023-05-18T05:34:51;99490.97;;;9.01;82.95
34586;BME280;20816;50.950;11.108;2023-05-18T05:37:18;99490.94;;;9.16;82.20
34586;BME280;20816;50.950;11.108;2023-05-18T05:39:45;99490.88;;;9.36;82.02
34586;BME280;20816;50.950;11.108;2023-05-18T05:42:12;99492.59;;;9.55;80.45
34586;BME280;20816;50.950;11.108;2023-05-18T05:44:39;99489.13;;;9.45;79.26
34586;BME280;20816;50.950;11.108;2023-05-18T05:47:07;99486.31;;;9.96;78.29
34586;BME280;20816;50.950;11.108;2023-05-18T05:49:34;99495.88;;;10.01;78.35
34586;BME280;20816;50.950;11.108;2023-05-18T05:52:01;99487.75;;;10.52;77.46
34586;BME280;20816;50.950;11.108;2023-05-18T05:54:28;99492.09;;;10.54;77.08
34586;BME280;20816;50.950;11.108;2023-05-18T05:56:54;99482.28;;;10.76;76.00
34586;BME280;20816;50.950;11.108;2023-05-18T05:59:21;99485.63;;;10.95;74.62
34586;BME280;20816;50.950;11.108;2023-05-18T06:01:48;99483.81;;;11.02;74.80
34586;BME280;20816;50.950;11.108;2023-05-18T06:04:15;99481.88;;;11.19;75.04
34586;BME280;20816;50.950;11.108;2023-05-18T06:06:41;99485.22;;;11.36;73.60
34586;BME280;20816;50.950;11.108;2023-05-18T06:09:09;99490.47;;;11.36;73.61
34586;BME280;20816;50.950;11.108;2023-05-18T06:11:36;99495.78;;;11.32;73.64
34586;BME280;20816;50.950;11.108;2023-05-18T06:14:03;99486.50;;;11.77;71.96
34586;BME280;20816;50.950;11.108;2023-05-18T06:16:30;99485.28;;;12.05;70.41
34586;BME280;20816;50.950;11.108;2023-05-18T06:18:57;99494.81;;;12.16;70.00
34586;BME280;20816;50.950;11.108;2023-05-18T06:21:24;99494.31;;;12.49;68.95
34586;BME280;20816;50.950;11.108;2023-05-18T06:23:51;99491.31;;;12.12;68.46
34586;BME280;20816;50.950;11.108;2023-05-18T06:26:17;99496.06;;;12.50;68.19
34586;BME280;20816;50.950;11.108;2023-05-18T06:28:44;99495.91;;;12.59;68.55
34586;BME280;20816;50.950;11.108;2023-05-18T06:31:11;99502.66;;;12.77;68.79
34586;BME280;20816;50.950;11.108;2023-05-18T06:33:38;99498.63;;;13.07;67.92
34586;BME280;20816;50.950;11.108;2023-05-18T06:36:05;99499.59;;;13.53;66.53
34586;BME280;20816;50.950;11.108;2023-05-18T06:38:32;99493.63;;;13.41;66.83
34586;BME280;20816;50.950;11.108;2023-05-18T06:40:59;99494.41;;;13.48;66.01
34586;BME280;20816;50.950;11.108;2023-05-18T06:43:25;99490.44;;;13.24;66.76
34586;BME280;20816;50.950;11.108;2023-05-18T06:45:55;99491.28;;;13.26;67.73
34586;BME280;20816;50.950;11.108;2023-05-18T06:48:25;99492.38;;;13.62;67.46
34586;BME280;20816;50.950;11.108;2023-05-18T06:50:52;99494.28;;;13.54;67.31
34586;BME280;20816;50.950;11.108;2023-05-18T06:53:19;99497.03;;;13.93;65.74
34586;BME280;20816;50.950;11.108;2023-05-18T06:55:46;99494.56;;;14.25;65.56
34586;BME280;20816;50.950;11.108;2023-05-18T06:58:12;99495.31;;;14.30;65.38
34586;BME280;20816;50.950;11.108;2023-05-18T07:00:39;99498.97;;;13.85;65.51
34586;BME280;20816;50.950;11.108;2023-05-18T07:03:06;99498.63;;;14.01;66.09
34586;BME280;20816;50.950;11.108;2023-05-18T07:05:33;99502.94;;;14.44;63.46
34586;BME280;20816;50.950;11.108;2023-05-18T07:08:04;99502.03;;;14.05;63.58
34586;BME280;20816;50.950;11.108;2023-05-18T07:10:31;99501.59;;;13.40;64.93
34586;BME280;20816;50.950;11.108;2023-05-18T07:12:58;99499.97;;;13.79;64.23
34586;BME280;20816;50.950;11.108;2023-05-18T07:15:24;99501.19;;;13.61;64.50
34586;BME280;20816;50.950;11.108;2023-05-18T07:17:52;99493.88;;;14.16;64.35
34586;BME280;20816;50.950;11.108;2023-05-18T07:20:18;99484.81;;;14.27;64.30
34586;BME280;20816;50.950;11.108;2023-05-18T07:22:45;99503.25;;;14.30;64.06
34586;BME280;20816;50.950;11.108;2023-05-18T07:25:12;99487.75;;;14.54;63.79
34586;BME280;20816;50.950;11.108;2023-05-18T07:27:39;99496.84;;;14.41;62.65
34586;BME280;20816;50.950;11.108;2023-05-18T07:30:06;99501.03;;;14.12;63.50
34586;BME280;20816;50.950;11.108;2023-05-18T07:32:33;99512.53;;;13.66;64.90
34586;BME280;20816;50.950;11.108;2023-05-18T07:35:00;99504.97;;;13.91;65.07
34586;BME280;20816;50.950;11.108;2023-05-18T07:37:27;99504.09;;;13.91;64.81
34586;BME280;20816;50.950;11.108;2023-05-18T07:39:53;99493.31;;;14.42;64.30
34586;BME280;20816;50.950;11.108;2023-05-18T07:42:20;99492.78;;;14.65;62.45
34586;BME280;20816;50.950;11.108;2023-05-18T07:44:47;99490.03;;;15.05;62.56
34586;BME280;20816;50.950;11.108;2023-05-18T07:47:13;99478.97;;;15.56;61.15
34586;BME280;20816;50.950;11.108;2023-05-18T07:49:40;99482.44;;;15.58;59.99
34586;BME280;20816;50.950;11.108;2023-05-18T07:52:08;99473.72;;;15.53;60.90
34586;BME280;20816;50.950;11.108;2023-05-18T07:54:35;99485.34;;;15.81;61.68
34586;BME280;20816;50.950;11.108;2023-05-18T07:57:01;99476.59;;;16.07;59.25
34586;BME280;20816;50.950;11.108;2023-05-18T07:59:29;99471.94;;;16.43;59.08
34586;BME280;20816;50.950;11.108;2023-05-18T08:01:56;99472.97;;;16.39;60.16
34586;BME280;20816;50.950;11.108;2023-05-18T08:04:24;99476.94;;;15.96;59.71
34586;BME280;20816;50.950;11.108;2023-05-18T08:06:52;99475.28;;;16.22;60.41
34586;BME280;20816;50.950;11.108;2023-05-18T08:09:20;99466.88;;;16.64;59.68
34586;BME280;20816;50.950;11.108;2023-05-18T08:11:49;99467.03;;;16.87;58.06
34586;BME280;20816;50.950;11.108;2023-05-18T08:14:17;99466.53;;;17.01;57.56
34586;BME280;20816;50.950;11.108;2023-05-18T08:16:44;99471.03;;;16.44;58.69
34586;BME280;20816;50.950;11.108;2023-05-18T08:19:10;99476.31;;;16.74;58.16
34586;BME280;20816;50.950;11.108;2023-05-18T08:21:37;99467.63;;;16.95;57.90
34586;BME280;20816;50.950;11.108;2023-05-18T08:24:05;99469.22;;;16.74;58.73
34586;BME280;20816;50.950;11.108;2023-05-18T08:26:32;99468.34;;;16.74;56.65
34586;BME280;20816;50.950;11.108;2023-05-18T08:28:59;99471.41;;;16.88;57.98
34586;BME280;20816;50.950;11.108;2023-05-18T08:31:25;99477.25;;;17.24;57.11
34586;BME280;20816;50.950;11.108;2023-05-18T08:33:52;99469.38;;;16.96;58.73
34586;BME280;20816;50.950;11.108;2023-05-18T08:36:19;99469.25;;;16.73;58.87
34586;BME280;20816;50.950;11.108;2023-05-18T08:38:45;99464.63;;;17.31;57.81
34586;BME280;20816;50.950;11.108;2023-05-18T08:41:43;99462.13;;;17.51;55.81
34586;BME280;20816;50.950;11.108;2023-05-18T08:44:15;99463.22;;;17.21;56.40
34586;BME280;20816;50.950;11.108;2023-05-18T08:46:48;99467.84;;;16.33;58.77
34586;BME280;20816;50.950;11.108;2023-05-18T08:49:18;99458.75;;;16.12;59.71
34586;BME280;20816;50.950;11.108;2023-05-18T08:51:47;99444.25;;;16.52;58.45
34586;BME280;20816;50.950;11.108;2023-05-18T08:54:20;99451.56;;;16.45;58.38
34586;BME280;20816;50.950;11.108;2023-05-18T08:56:48;99455.78;;;16.79;57.14
34586;BME280;20816;50.950;11.108;2023-05-18T08:59:17;99446.22;;;17.25;55.76
34586;BME280;20816;50.950;11.108;2023-05-18T09:01:45;99457.44;;;16.55;57.13
34586;BME280;20816;50.950;11.108;2023-05-18T09:04:12;99466.13;;;15.40;59.81
34586;BME280;20816;50.950;11.108;2023-05-18T09:06:40;99454.34;;;15.83;58.44
34586;BME280;20816;50.950;11.108;2023-05-18T09:09:08;99449.16;;;16.36;57.79
34586;BME280;20816;50.950;11.108;2023-05-18T09:11:37;99453.44;;;16.70;57.12
34586;BME280;20816;50.950;11.108;2023-05-18T09:14:04;99457.81;;;16.43;57.44
34586;BME280;20816;50.950;11.108;2023-05-18T09:16:31;99463.56;;;16.00;58.19
34586;BME280;20816;50.950;11.108;2023-05-18T09:18:59;99460.63;;;15.81;57.31
34586;BME280;20816;50.950;11.108;2023-05-18T09:21:26;99464.72;;;15.27;57.42
34586;BME280;20816;50.950;11.108;2023-05-18T09:23:53;99462.56;;;15.09;57.87
34586;BME280;20816;50.950;11.108;2023-05-18T09:26:20;99462.22;;;15.21;58.92
34586;BME280;20816;50.950;11.108;2023-05-18T09:28:51;99462.16;;;15.24;58.45
34586;BME280;20816;50.950;11.108;2023-05-18T09:31:20;99459.78;;;15.13;57.85
34586;BME280;20816;50.950;11.108;2023-05-18T09:33:47;99452.69;;;15.16;57.84
34586;BME280;20816;50.950;11.108;2023-05-18T09:36:16;99457.13;;;15.15;58.52
34586;BME280;20816;50.950;11.108;2023-05-18T09:38:44;99460.78;;;14.75;58.36
34586;BME280;20816;50.950;11.108;2023-05-18T09:41:13;99459.00;;;14.76;58.89
34586;BME280;20816;50.950;11.108;2023-05-18T09:43:43;99462.22;;;15.21;59.09
34586;BME280;20816;50.950;11.108;2023-05-18T09:46:12;99451.75;;;15.49;57.53
34586;BME280;20816;50.950;11.108;2023-05-18T09:48:44;99452.78;;;15.43;57.73
34586;BME280;20816;50.950;11.108;2023-05-18T09:51:13;99451.81;;;15.48;56.21
34586;BME280;20816;50.950;11.108;2023-05-18T09:53:53;99455.88;;;15.61;56.09
34586;BME280;20816;50.950;11.108;2023-05-18T09:56:24;99448.66;;;15.33;56.79
34586;BME280;20816;50.950;11.108;2023-05-18T09:58:52;99439.88;;;15.93;56.87
34586;BME280;20816;50.950;11.108;2023-05-18T10:01:19;99443.09;;;15.75;57.45
34586;BME280;20816;50.950;11.108;2023-05-18T10:03:46;99441.38;;;15.41;57.47
34586;BME280;20816;50.950;11.108;2023-05-18T10:06:15;99435.25;;;15.72;57.17
34586;BME280;20816;50.950;11.108;2023-05-18T10:08:47;99437.56;;;17.20;55.52
34586;BME280;20816;50.950;11.108;2023-05-18T10:11:16;99434.31;;;16.85;55.05
34586;BME280;20816;50.950;11.108;2023-05-18T10:13:44;99433.69;;;16.78;54.69
34586;BME280;20816;50.950;11.108;2023-05-18T10:16:14;99433.38;;;17.13;53.69
34586;BME280;20816;50.950;11.108;2023-05-18T10:18:41;99435.84;;;16.92;54.83
34586;BME280;20816;50.950;11.108;2023-05-18T10:21:08;99429.97;;;16.28;56.19
34586;BME280;20816;50.950;11.108;2023-05-18T10:23:39;99431.88;;;17.05;54.15
34586;BME280;20816;50.950;11.108;2023-05-18T10:26:06;99430.19;;;16.76;53.82
34586;BME280;20816;50.950;11.108;2023-05-18T10:28:43;99430.88;;;16.55;54.35
34586;BME280;20816;50.950;11.108;2023-05-18T10:31:15;99426.88;;;16.68;53.38
34586;BME280;20816;50.950;11.108;2023-05-18T10:33:43;99422.75;;;16.60;53.90
34586;BME280;20816;50.950;11.108;2023-05-18T10:36:10;99428.34;;;17.05;53.71
34586;BME280;20816;50.950;11.108;2023-05-18T10:38:37;99426.41;;;17.58;53.16
34586;BME280;20816;50.950;11.108;2023-05-18T10:41:06;99422.09;;;18.03;51.71
34586;BME280;20816;50.950;11.108;2023-05-18T10:43:33;99418.66;;;18.44;51.03
34586;BME280;20816;50.950;11.108;2023-05-18T10:46:02;99421.19;;;18.26;50.58
34586;BME280;20816;50.950;11.108;2023-05-18T10:48:30;99418.28;;;18.54;51.12
34586;BME280;20816;50.950;11.108;2023-05-18T10:50:57;99419.75;;;17.95;50.33
34586;BME280;20816;50.950;11.108;2023-05-18T10:53:26;99420.25;;;17.81;50.94
34586;BME280;20816;50.950;11.108;2023-05-18T10:55:54;99416.66;;;17.11;52.03
34586;BME280;20816;50.950;11.108;2023-05-18T10:58:24;99407.53;;;17.41;51.77
34586;BME280;20816;50.950;11.108;2023-05-18T11:00:55;99410.88;;;17.23;54.12
34586;BME280;20816;50.950;11.108;2023-05-18T11:03:23;99410.09;;;17.92;51.33
34586;BME280;20816;50.950;11.108;2023-05-18T11:06:11;99394.41;;;18.08;50.59
34586;BME280;20816;50.950;11.108;2023-05-18T11:08:48;99411.16;;;18.32;49.74
34586;BME280;20816;50.950;11.108;2023-05-18T11:11:15;99413.22;;;18.69;49.41
34586;BME280;20816;50.950;11.108;2023-05-18T11:13:49;99409.25;;;17.90;49.96
34586;BME280;20816;50.950;11.108;2023-05-18T11:16:17;99406.59;;;17.90;51.05
34586;BME280;20816;50.950;11.108;2023-05-18T11:18:49;99400.19;;;18.84;48.63
34586;BME280;20816;50.950;11.108;2023-05-18T11:26:55;99403.78;;;17.95;50.38
34586;BME280;20816;50.950;11.108;2023-05-18T11:29:29;99398.34;;;17.75;52.01
34586;BME280;20816;50.950;11.108;2023-05-18T11:31:56;99402.34;;;17.38;51.57
34586;BME280;20816;50.950;11.108;2023-05-18T11:34:40;99407.47;;;16.94;52.73
34586;BME280;20816;50.950;11.108;2023-05-18T11:37:15;99398.00;;;17.84;50.56
34586;BME280;20816;50.950;11.108;2023-05-18T11:39:54;99388.91;;;18.55;49.70
34586;BME280;20816;50.950;11.108;2023-05-18T11:42:31;99388.06;;;19.17;48.51
34586;BME280;20816;50.950;11.108;2023-05-18T11:45:05;99385.38;;;18.97;48.61
34586;BME280;20816;50.950;11.108;2023-05-18T11:47:32;99388.63;;;17.97;50.15
34586;BME280;20816;50.950;11.108;2023-05-18T11:50:00;99392.28;;;16.73;51.63
34586;BME280;20816;50.950;11.108;2023-05-18T11:52:26;99397.31;;;16.26;52.24
34586;BME280;20816;50.950;11.108;2023-05-18T11:54:55;99395.72;;;16.75;52.84
34586;BME280;20816;50.950;11.108;2023-05-18T11:57:24;99386.72;;;18.01;51.46
34586;BME280;20816;50.950;11.108;2023-05-18T11:59:56;99388.91;;;18.55;50.33
34586;BME280;20816;50.950;11.108;2023-05-18T12:02:25;99392.03;;;18.44;49.94
34586;BME280;20816;50.950;11.108;2023-05-18T12:04:54;99385.47;;;18.53;48.69
34586;BME280;20816;50.950;11.108;2023-05-18T12:07:22;99385.94;;;18.85;47.99
34586;BME280;20816;50.950;11.108;2023-05-18T12:12:27;99386.47;;;18.29;49.08
34586;BME280;20816;50.950;11.108;2023-05-18T12:14:56;99380.47;;;18.02;49.30
34586;BME280;20816;50.950;11.108;2023-05-18T12:17:39;99384.34;;;18.15;48.77
34586;BME280;20816;50.950;11.108;2023-05-18T12:20:13;99382.88;;;18.30;48.77
34586;BME280;20816;50.950;11.108;2023-05-18T12:22:42;99379.44;;;18.70;49.89
34586;BME280;20816;50.950;11.108;2023-05-18T12:25:09;99377.66;;;18.70;48.77
34586;BME280;20816;50.950;11.108;2023-05-18T12:27:38;99379.34;;;18.93;49.17
34586;BME280;20816;50.950;11.108;2023-05-18T12:30:09;99359.34;;;19.03;49.59
34586;BME280;20816;50.950;11.108;2023-05-18T12:32:43;99367.69;;;18.75;48.47
34586;BME280;20816;50.950;11.108;2023-05-18T12:35:10;99369.97;;;18.63;48.66
34586;BME280;20816;50.950;11.108;2023-05-18T12:37:44;99359.84;;;18.51;49.46
34586;BME280;20816;50.950;11.108;2023-05-18T12:40:16;99360.44;;;18.57;49.96
34586;BME280;20816;50.950;11.108;2023-05-18T12:45:20;99363.47;;;18.48;50.43
34586;BME280;20816;50.950;11.108;2023-05-18T12:47:47;99361.13;;;18.40;48.87
34586;BME280;20816;50.950;11.108;2023-05-18T12:50:21;99353.56;;;18.09;49.65
34586;BME280;20816;50.950;11.108;2023-05-18T12:52:48;99358.81;;;18.11;49.39
34586;BME280;20816;50.950;11.108;2023-05-18T12:55:19;99358.03;;;18.51;50.14
34586;BME280;20816;50.950;11.108;2023-05-18T12:58:04;99350.41;;;19.04;49.83
34586;BME280;20816;50.950;11.108;2023-05-18T13:00:33;99355.16;;;18.77;49.22
34586;BME280;20816;50.950;11.108;2023-05-18T13:03:07;99356.34;;;18.70;50.50
34586;BME280;20816;50.950;11.108;2023-05-18T13:05:39;99351.31;;;18.85;49.37
34586;BME280;20816;50.950;11.108;2023-05-18T13:08:15;99342.59;;;17.95;50.47
34586;BME280;20816;50.950;11.108;2023-05-18T13:10:44;99344.34;;;18.38;49.64
34586;BME280;20816;50.950;11.108;2023-05-18T13:13:15;99344.91;;;18.46;48.77
34586;BME280;20816;50.950;11.108;2023-05-18T13:15:42;99341.59;;;18.62;49.79